Time;durP1;ratioP1;P1;durP2;ratioP2;P2;SDS_P1;SDS_P2;PMS_P1;PMS_P2;Temp;Humidity;BMP_temperature;BMP_pressure;BME280_temperature;BME280_humidity;BME280_pressure;Samples;Min_cycle;Max_cycle;Signal;HPM_P1;HPM_P2
2022/10/23 00:02:01;;;;;;;6.07;4.80;;;12.00;99.90;;;;;;5075850;28;20210;-87
2022/10/23 00:04:29;;;;;;;7.23;4.50;;;11.90;99.90;;;;;;5075747;28;20161;-85
2022/10/23 00:06:55;;;;;;;8.57;4.47;;;11.80;99.90;;;;;;5075763;28;20357;-86
2022/10/23 00:09:23;;;;;;;11.40;4.43;;;11.60;99.90;;;;;;5075771;28;20407;-86
2022/10/23 00:11:50;;;;;;;4.90;3.47;;;11.50;99.90;;;;;;5075755;28;20209;-87
2022/10/23 00:14:20;;;;;;;8.30;4.03;;;11.40;99.90;;;;;;5075668;28;20912;-86
2022/10/23 00:16:49;;;;;;;5.87;4.37;;;11.40;99.90;;;;;;5076050;28;20405;-86
2022/10/23 00:19:14;;;;;;;6.40;4.10;;;11.50;99.90;;;;;;5075780;28;20776;-84
2022/10/23 00:21:40;;;;;;;6.40;4.80;;;11.40;99.90;;;;;;5075850;28;20410;-87
2022/10/23 00:24:07;;;;;;;8.40;4.70;;;11.30;99.90;;;;;;5075341;28;20176;-85
2022/10/23 00:26:33;;;;;;;7.30;3.40;;;11.40;99.90;;;;;;5075440;28;20193;-86
2022/10/23 00:28:59;;;;;;;6.30;3.37;;;11.30;99.90;;;;;;5074770;28;20579;-86
2022/10/23 00:31:25;;;;;;;6.60;3.27;;;11.10;99.90;;;;;;5075124;28;20889;-86
2022/10/23 00:33:51;;;;;;;3.80;3.20;;;11.10;99.90;;;;;;5075054;28;20637;-85
2022/10/23 00:36:19;;;;;;;6.67;3.40;;;10.90;99.90;;;;;;5074931;28;20430;-83
2022/10/23 00:38:44;;;;;;;4.13;2.70;;;10.90;99.90;;;;;;5057015;28;20419;-83
2022/10/23 00:41:15;;;;;;;7.30;3.60;;;10.80;99.90;;;;;;5074696;28;21021;-83
2022/10/23 00:44:10;;;;;;;5.23;3.77;;;10.70;99.90;;;;;;5074688;28;20173;-84
2022/10/23 00:46:38;;;;;;;5.20;2.73;;;10.70;99.90;;;;;;5074986;28;20828;-83
2022/10/23 00:49:05;;;;;;;4.13;2.57;;;10.70;99.90;;;;;;5074685;28;20419;-83
2022/10/23 00:51:40;;;;;;;4.53;3.20;;;10.60;99.90;;;;;;5074486;28;20470;-85
2022/10/23 00:54:06;;;;;;;4.60;3.47;;;10.50;99.90;;;;;;5074357;28;20799;-85
2022/10/23 00:56:35;;;;;;;5.90;2.90;;;10.50;99.90;;;;;;5074142;28;20906;-83
2022/10/23 00:59:01;;;;;;;5.80;3.63;;;10.50;99.90;;;;;;5049373;28;20439;-84
2022/10/23 01:01:26;;;;;;;6.67;3.70;;;10.50;99.90;;;;;;5058690;28;20443;-84
2022/10/23 01:03:52;;;;;;;5.07;2.90;;;10.40;99.90;;;;;;5054582;28;20217;-83
2022/10/23 01:06:51;;;;;;;4.30;3.33;;;10.40;99.90;;;;;;5054101;28;20690;-83
2022/10/23 01:09:33;;;;;;;3.63;2.10;;;10.30;99.90;;;;;;5054215;28;20169;-83
2022/10/23 01:12:13;;;;;;;5.97;2.80;;;10.30;99.90;;;;;;5054392;28;20819;-83
2022/10/23 01:15:07;;;;;;;3.50;2.87;;;10.20;99.90;;;;;;5054346;28;20807;-83
2022/10/23 01:17:36;;;;;;;5.10;2.70;;;10.20;99.90;;;;;;5054621;28;20765;-84
2022/10/23 01:20:21;;;;;;;6.37;3.93;;;10.20;99.90;;;;;;5053809;28;21029;-83
2022/10/23 01:22:52;;;;;;;5.50;3.53;;;10.20;99.90;;;;;;5053502;28;20418;-83
2022/10/23 01:25:32;;;;;;;6.73;3.80;;;10.20;99.90;;;;;;5053576;28;20435;-83
2022/10/23 01:28:07;;;;;;;8.33;4.17;;;10.20;99.90;;;;;;5053160;28;20500;-83
2022/10/23 01:30:39;;;;;;;6.37;3.57;;;10.10;99.90;;;;;;5053539;28;20422;-83
2022/10/23 01:33:13;;;;;;;7.17;3.37;;;10.10;99.90;;;;;;5053367;28;20478;-83
2022/10/23 01:35:48;;;;;;;8.90;3.90;;;10.20;99.90;;;;;;5035507;28;20921;-83
2022/10/23 01:38:26;;;;;;;6.87;3.40;;;10.20;99.90;;;;;;5053390;28;20423;-83
2022/10/23 01:40:57;;;;;;;6.70;4.27;;;10.20;99.90;;;;;;5053377;28;21005;-83
2022/10/23 01:43:33;;;;;;;6.73;3.50;;;10.10;99.90;;;;;;5052943;28;20427;-82
2022/10/23 01:46:07;;;;;;;7.33;4.33;;;10.10;99.90;;;;;;5053253;28;20759;-82
2022/10/23 01:48:34;;;;;;;6.67;4.17;;;10.10;99.90;;;;;;5053260;28;20472;-83
2022/10/23 01:51:06;;;;;;;5.83;3.93;;;10.10;99.90;;;;;;5053189;28;20464;-83
2022/10/23 01:53:37;;;;;;;7.30;3.87;;;10.10;99.90;;;;;;5053194;28;20455;-82
2022/10/23 01:56:05;;;;;;;9.20;5.17;;;10.10;99.90;;;;;;5053119;28;20420;-82
2022/10/23 01:58:33;;;;;;;7.03;4.30;;;10.10;99.90;;;;;;5052577;28;20434;-83
2022/10/23 02:01:02;;;;;;;7.63;4.17;;;10.20;99.90;;;;;;5053022;28;20412;-82
2022/10/23 02:03:30;;;;;;;4.53;3.60;;;10.30;99.90;;;;;;5052986;28;20515;-83
2022/10/23 02:05:55;;;;;;;5.00;3.40;;;10.40;99.90;;;;;;5052586;28;20505;-83
2022/10/23 02:08:21;;;;;;;9.30;5.00;;;10.50;99.90;;;;;;5052878;28;20514;-83
2022/10/23 02:10:59;;;;;;;7.70;4.67;;;10.40;99.90;;;;;;5052886;28;20183;-82
2022/10/23 02:13:48;;;;;;;5.60;3.90;;;10.50;99.90;;;;;;5052422;28;20195;-83
2022/10/23 02:16:38;;;;;;;10.83;4.30;;;10.30;99.90;;;;;;5052205;28;20514;-83
2022/10/23 02:19:25;;;;;;;6.53;3.83;;;10.50;99.90;;;;;;5052842;28;20507;-83
2022/10/23 02:21:58;;;;;;;9.60;3.33;;;10.50;99.90;;;;;;5052385;28;20408;-84
2022/10/23 02:24:38;;;;;;;9.53;3.40;;;10.50;99.90;;;;;;5052751;28;20760;-84
2022/10/23 02:27:20;;;;;;;5.37;2.60;;;10.50;99.90;;;;;;5052730;28;20445;-84
2022/10/23 02:29:50;;;;;;;8.93;2.97;;;10.50;99.90;;;;;;5051084;28;20421;-85
2022/10/23 02:32:19;;;;;;;14.37;3.73;;;10.40;99.90;;;;;;5052589;28;20503;-85
2022/10/23 02:34:45;;;;;;;4.77;4.23;;;10.40;99.90;;;;;;5052600;28;20416;-86
2022/10/23 02:37:10;;;;;;;5.53;2.80;;;10.40;99.90;;;;;;5052617;28;20513;-86
2022/10/23 02:39:36;;;;;;;4.23;2.63;;;10.30;99.90;;;;;;5052599;28;20621;-86
2022/10/23 02:42:10;;;;;;;5.40;3.27;;;10.30;99.90;;;;;;5034722;28;20174;-86
2022/10/23 02:44:58;;;;;;;8.50;2.80;;;10.30;99.90;;;;;;5052250;28;20189;-86
2022/10/23 02:47:52;;;;;;;7.03;3.60;;;10.30;99.90;;;;;;5052502;28;20410;-85
2022/10/23 02:50:32;;;;;;;3.97;2.10;;;10.30;99.90;;;;;;5052450;28;20419;-85
2022/10/23 02:53:01;;;;;;;5.57;4.00;;;10.20;99.90;;;;;;5034565;28;20478;-85
2022/10/23 02:55:38;;;;;;;5.40;3.30;;;10.20;99.90;;;;;;5052375;28;20776;-86
2022/10/23 02:58:15;;;;;;;6.67;3.00;;;10.20;99.90;;;;;;5034239;28;20426;-86
2022/10/23 03:00:45;;;;;;;2.63;1.93;;;10.10;99.90;;;;;;5052395;28;20422;-86
2022/10/23 03:03:15;;;;;;;4.90;1.50;;;10.10;99.90;;;;;;5052227;28;20408;-86
2022/10/23 03:05:43;;;;;;;5.23;3.20;;;10.10;99.90;;;;;;5052140;28;20470;-87
2022/10/23 03:08:12;;;;;;;3.50;1.73;;;10.10;99.90;;;;;;5034394;28;20509;-87
2022/10/23 03:10:38;;;;;;;4.43;3.10;;;10.00;99.90;;;;;;5052249;28;20417;-87
2022/10/23 03:13:04;;;;;;;4.70;3.53;;;10.10;99.90;;;;;;5051751;28;20814;-86
2022/10/23 03:15:30;;;;;;;3.77;2.77;;;10.10;99.90;;;;;;5052164;28;20415;-86
2022/10/23 03:17:55;;;;;;;4.07;2.80;;;10.10;99.90;;;;;;5052205;28;20239;-87
2022/10/23 03:20:21;;;;;;;4.77;3.30;;;10.10;99.90;;;;;;5034307;28;20579;-86
2022/10/23 03:22:46;;;;;;;8.93;3.03;;;10.00;99.90;;;;;;5034350;28;20282;-87
2022/10/23 03:25:12;;;;;;;4.60;3.17;;;10.10;99.90;;;;;;5052178;28;20173;-86
2022/10/23 03:27:37;;;;;;;6.53;3.23;;;10.10;99.90;;;;;;5033878;28;20261;-86
2022/10/23 03:30:04;;;;;;;5.43;2.37;;;10.10;99.90;;;;;;5052021;28;20185;-86
2022/10/23 03:32:30;;;;;;;5.27;3.40;;;10.00;99.90;;;;;;5052060;28;20589;-86
2022/10/23 03:34:55;;;;;;;6.10;3.20;;;10.00;99.90;;;;;;5037455;28;20429;-86
2022/10/23 03:37:21;;;;;;;8.23;3.63;;;10.00;99.90;;;;;;5055684;28;20644;-86
2022/10/23 03:39:47;;;;;;;7.63;3.30;;;9.90;99.90;;;;;;5055582;28;20241;-85
2022/10/23 03:42:12;;;;;;;7.20;2.83;;;9.90;99.90;;;;;;5055611;28;20185;-85
2022/10/23 03:44:38;;;;;;;24.47;3.40;;;9.80;99.90;;;;;;5055181;28;20176;-84
2022/10/23 03:47:03;;;;;;;8.10;3.67;;;9.90;99.90;;;;;;5055540;28;20627;-85
2022/10/23 03:49:29;;;;;;;8.27;3.17;;;9.90;99.90;;;;;;5055425;28;20534;-86
2022/10/23 03:51:54;;;;;;;14.17;3.47;;;9.80;99.90;;;;;;5055315;28;20219;-86
2022/10/23 03:54:24;;;;;;;13.60;3.50;;;9.90;99.90;;;;;;5055391;28;20171;-86
2022/10/23 03:56:50;;;;;;;21.30;3.80;;;9.90;99.90;;;;;;5055268;28;20577;-86
2022/10/23 03:59:16;;;;;;;6.00;3.37;;;9.80;99.90;;;;;;5036973;28;20443;-85
2022/10/23 04:01:42;;;;;;;7.00;3.27;;;9.90;99.90;;;;;;5053941;28;20276;-86
2022/10/23 04:04:07;;;;;;;12.17;3.27;;;9.90;99.90;;;;;;5037287;28;20640;-86
2022/10/23 04:06:33;;;;;;;5.93;3.87;;;9.90;99.90;;;;;;5054847;28;20294;-86
2022/10/23 04:08:58;;;;;;;4.00;2.40;;;9.90;99.90;;;;;;5055059;28;20171;-86
2022/10/23 04:11:24;;;;;;;6.27;4.07;;;9.80;99.90;;;;;;5054910;28;20206;-86
2022/10/23 04:13:49;;;;;;;5.07;3.43;;;9.80;99.90;;;;;;5054624;28;20184;-86
2022/10/23 04:16:15;;;;;;;6.50;4.40;;;9.80;99.90;;;;;;5054891;28;20182;-86
2022/10/23 04:18:41;;;;;;;6.97;3.37;;;9.80;99.90;;;;;;5054937;28;20177;-86
2022/10/23 04:21:07;;;;;;;5.77;3.47;;;9.80;99.90;;;;;;5055236;28;20188;-86
2022/10/23 04:23:33;;;;;;;5.13;2.83;;;9.70;99.90;;;;;;5056810;28;20782;-86
2022/10/23 04:25:59;;;;;;;7.30;3.80;;;9.60;99.90;;;;;;5074723;28;20174;-86
2022/10/23 04:28:25;;;;;;;11.67;4.30;;;9.70;99.90;;;;;;5074244;28;20175;-86
2022/10/23 04:30:50;;;;;;;7.73;4.33;;;9.80;99.90;;;;;;5074555;28;20417;-85
2022/10/23 04:33:16;;;;;;;6.50;3.30;;;9.80;99.90;;;;;;5074541;28;20471;-86
2022/10/23 04:35:42;;;;;;;6.93;3.57;;;9.80;99.90;;;;;;5074602;28;20648;-86
2022/10/23 04:38:07;;;;;;;9.33;5.30;;;9.70;99.90;;;;;;5056687;28;20676;-86
2022/10/23 04:40:33;;;;;;;6.13;3.40;;;9.70;99.90;;;;;;5074447;28;20571;-86
2022/10/23 04:42:58;;;;;;;8.30;3.97;;;9.70;99.90;;;;;;5056152;28;20179;-86
2022/10/23 04:45:24;;;;;;;6.80;3.50;;;9.60;99.90;;;;;;5074059;28;20638;-86
2022/10/23 04:47:49;;;;;;;6.23;3.07;;;9.50;99.90;;;;;;5074308;28;20222;-86
2022/10/23 04:50:15;;;;;;;7.33;4.20;;;9.60;99.90;;;;;;5074347;28;20531;-86
2022/10/23 04:52:40;;;;;;;5.50;3.67;;;9.60;99.90;;;;;;5058980;28;20227;-86
2022/10/23 04:55:07;;;;;;;6.67;4.30;;;9.60;99.90;;;;;;5081367;28;20176;-86
2022/10/23 04:57:32;;;;;;;7.53;4.37;;;9.60;99.90;;;;;;5074075;28;20223;-86
2022/10/23 04:59:58;;;;;;;7.30;4.63;;;9.70;99.90;;;;;;5073973;28;20416;-86
2022/10/23 05:02:23;;;;;;;5.30;3.53;;;9.60;99.90;;;;;;5073988;28;20170;-86
2022/10/23 05:04:49;;;;;;;4.60;3.77;;;9.70;99.90;;;;;;5073798;28;20184;-85
2022/10/23 05:07:15;;;;;;;11.97;5.77;;;9.70;99.90;;;;;;5073850;28;20190;-86
2022/10/23 05:09:41;;;;;;;6.37;3.40;;;9.70;99.90;;;;;;5073865;28;20176;-87
2022/10/23 05:12:07;;;;;;;5.47;3.90;;;9.70;99.90;;;;;;5073711;28;20819;-86
2022/10/23 05:14:33;;;;;;;4.83;3.10;;;9.60;99.90;;;;;;5073288;28;20224;-86
2022/10/23 05:17:22;;;;;;;7.03;3.87;;;9.60;99.90;;;;;;5073721;28;20840;-86
2022/10/23 05:19:52;;;;;;;5.20;2.97;;;9.60;99.90;;;;;;5074199;28;20181;-86
2022/10/23 05:22:19;;;;;;;4.13;3.03;;;9.60;99.90;;;;;;5073771;28;20412;-86
2022/10/23 05:24:45;;;;;;;7.57;3.77;;;9.60;99.90;;;;;;5073808;28;20404;-86
2022/10/23 05:27:10;;;;;;;6.90;3.57;;;9.60;99.90;;;;;;5073875;28;20829;-86
2022/10/23 05:29:36;;;;;;;8.50;3.03;;;9.60;99.90;;;;;;5073692;28;20204;-86
2022/10/23 05:32:04;;;;;;;7.70;3.00;;;9.60;99.90;;;;;;5073420;28;20253;-86
2022/10/23 05:34:33;;;;;;;10.20;3.97;;;9.50;99.90;;;;;;5073741;28;20170;-86
2022/10/23 05:37:00;;;;;;;8.27;3.60;;;9.50;99.90;;;;;;5073845;28;20880;-86
2022/10/23 05:39:26;;;;;;;5.60;3.57;;;9.50;99.90;;;;;;5073947;28;20421;-86
2022/10/23 05:41:53;;;;;;;8.27;3.83;;;9.50;99.90;;;;;;5073984;28;20851;-86
2022/10/23 05:44:22;;;;;;;10.33;3.07;;;9.50;99.90;;;;;;5073442;28;20253;-86
2022/10/23 05:46:47;;;;;;;5.77;3.37;;;9.50;99.90;;;;;;5073406;28;20500;-86
2022/10/23 05:49:13;;;;;;;10.93;3.87;;;9.50;99.90;;;;;;5073351;28;20502;-86
2022/10/23 05:51:39;;;;;;;8.83;3.53;;;9.50;99.90;;;;;;5073437;28;20287;-86
2022/10/23 05:54:07;;;;;;;8.03;3.90;;;9.50;99.90;;;;;;5073595;28;20239;-85
2022/10/23 05:56:33;;;;;;;4.30;3.13;;;9.50;99.90;;;;;;5072555;28;20409;-87
2022/10/23 05:58:59;;;;;;;6.67;3.23;;;9.50;99.90;;;;;;5072494;28;20464;-86
2022/10/23 06:01:24;;;;;;;6.40;4.10;;;9.50;99.90;;;;;;5072823;28;20805;-85
2022/10/23 06:03:50;;;;;;;6.10;3.40;;;9.40;99.90;;;;;;5073846;28;20253;-86
2022/10/23 06:06:15;;;;;;;4.97;3.03;;;9.40;99.90;;;;;;5055680;28;20222;-85
2022/10/23 06:08:41;;;;;;;5.90;3.27;;;9.40;99.90;;;;;;5073468;28;20174;-86
2022/10/23 06:11:08;;;;;;;7.13;4.37;;;9.40;99.90;;;;;;5072933;28;20171;-85
2022/10/23 06:13:33;;;;;;;8.40;4.17;;;9.40;99.90;;;;;;5072492;28;20179;-85
2022/10/23 06:16:06;;;;;;;5.10;2.80;;;9.40;99.90;;;;;;5073337;28;20419;-86
2022/10/23 06:18:31;;;;;;;4.83;3.10;;;9.40;99.90;;;;;;5073270;28;20193;-85
2022/10/23 06:21:00;;;;;;;6.93;3.93;;;9.40;99.90;;;;;;5073258;28;20400;-86
2022/10/23 06:23:25;;;;;;;11.10;4.13;;;9.40;99.90;;;;;;5073049;28;20167;-85
2022/10/23 06:25:53;;;;;;;7.90;3.60;;;9.40;99.90;;;;;;5055198;28;20423;-86
2022/10/23 06:28:18;;;;;;;4.77;3.60;;;9.40;99.90;;;;;;5072800;28;20503;-87
2022/10/23 06:30:44;;;;;;;7.63;4.07;;;9.40;99.90;;;;;;5073062;28;20420;-86
2022/10/23 06:33:09;;;;;;;7.73;2.97;;;9.40;99.90;;;;;;5054987;28;20212;-86
2022/10/23 06:35:35;;;;;;;6.77;3.67;;;9.40;99.90;;;;;;5073124;28;20163;-86
2022/10/23 06:38:00;;;;;;;5.53;3.37;;;9.50;99.90;;;;;;5073045;28;20631;-86
2022/10/23 06:40:26;;;;;;;8.10;4.17;;;9.50;99.90;;;;;;5073152;28;20167;-86
2022/10/23 06:42:51;;;;;;;7.70;4.20;;;9.50;99.90;;;;;;5072592;28;20240;-86
2022/10/23 06:45:17;;;;;;;6.33;4.10;;;9.60;99.90;;;;;;5073041;28;20248;-85
2022/10/23 06:47:42;;;;;;;5.93;4.27;;;9.70;99.90;;;;;;5054992;28;20183;-86
2022/10/23 06:50:08;;;;;;;8.70;3.67;;;9.70;99.90;;;;;;5054857;28;20263;-86
2022/10/23 06:52:33;;;;;;;7.23;3.60;;;9.80;99.90;;;;;;5072685;28;20211;-85
2022/10/23 06:54:59;;;;;;;6.40;3.70;;;9.90;99.90;;;;;;5072770;28;20172;-86
2022/10/23 06:57:24;;;;;;;7.43;4.33;;;9.90;99.90;;;;;;5072548;28;20169;-85
2022/10/23 06:59:50;;;;;;;7.87;3.30;;;9.90;99.90;;;;;;5072797;28;20170;-85
2022/10/23 07:02:15;;;;;;;6.00;3.20;;;10.00;99.90;;;;;;5072807;28;20175;-85
2022/10/23 07:04:40;;;;;;;8.10;4.10;;;10.10;99.90;;;;;;5072996;28;20175;-85
2022/10/23 07:07:06;;;;;;;7.33;4.50;;;10.10;99.90;;;;;;5073034;28;20646;-85
2022/10/23 07:09:34;;;;;;;5.83;3.00;;;10.10;99.90;;;;;;5076529;28;20171;-85
2022/10/23 07:12:00;;;;;;;7.47;3.77;;;10.20;99.90;;;;;;5075794;28;20270;-86
2022/10/23 07:14:25;;;;;;;5.60;3.13;;;10.30;99.90;;;;;;5076530;28;20419;-85
2022/10/23 07:16:51;;;;;;;5.60;4.20;;;10.30;99.90;;;;;;5076773;28;20176;-86
2022/10/23 07:19:16;;;;;;;9.47;3.63;;;10.50;99.90;;;;;;5076363;28;20203;-86
2022/10/23 07:21:41;;;;;;;6.40;3.63;;;10.60;99.90;;;;;;5076389;28;20173;-85
2022/10/23 07:24:07;;;;;;;6.37;3.20;;;10.80;99.90;;;;;;5076598;28;20232;-86
2022/10/23 07:26:33;;;;;;;6.80;4.10;;;10.90;99.90;;;;;;5076327;28;20252;-85
2022/10/23 07:28:58;;;;;;;6.77;3.87;;;10.90;99.90;;;;;;5075741;28;20212;-85
2022/10/23 07:31:25;;;;;;;9.53;4.00;;;11.10;99.90;;;;;;5058758;28;20651;-85
2022/10/23 07:33:53;;;;;;;7.30;4.87;;;11.50;99.90;;;;;;5076502;28;20185;-85
2022/10/23 07:36:19;;;;;;;7.17;4.37;;;12.20;99.90;;;;;;5076432;28;20414;-87
2022/10/23 07:38:44;;;;;;;6.37;3.60;;;12.30;99.90;;;;;;5076126;28;20424;-85
2022/10/23 07:41:10;;;;;;;5.30;3.80;;;12.20;99.90;;;;;;5075972;28;20626;-86
2022/10/23 07:43:36;;;;;;;7.87;3.93;;;12.10;99.90;;;;;;5075667;28;20205;-85
2022/10/23 07:46:02;;;;;;;8.13;2.73;;;12.40;99.90;;;;;;5076161;28;20785;-85
2022/10/23 07:48:28;;;;;;;6.07;3.50;;;12.60;99.90;;;;;;5075996;28;20171;-86
2022/10/23 07:50:57;;;;;;;3.77;2.70;;;12.70;99.90;;;;;;5057884;28;20183;-86
2022/10/23 07:53:24;;;;;;;6.70;3.50;;;13.40;99.90;;;;;;5075740;28;20215;-86
2022/10/23 07:56:01;;;;;;;5.03;3.10;;;13.50;99.90;;;;;;5075855;28;20419;-87
2022/10/23 07:58:28;;;;;;;5.73;3.07;;;13.70;99.90;;;;;;5075817;28;20429;-87
2022/10/23 08:00:59;;;;;;;3.77;2.47;;;13.80;99.90;;;;;;5076867;28;20548;-85
2022/10/23 08:03:27;;;;;;;4.60;3.40;;;15.10;99.90;;;;;;5078900;28;20447;-83
2022/10/23 08:05:54;;;;;;;3.47;2.80;;;15.90;1.00;;;;;;5064737;28;20523;-85
2022/10/23 08:08:20;;;;;;;2.70;2.07;;;16.20;1.00;;;;;;5059688;28;20928;-85
2022/10/23 08:10:47;;;;;;;4.50;1.87;;;16.70;1.00;;;;;;5078094;28;20414;-84
2022/10/23 08:13:13;;;;;;;4.63;2.37;;;17.10;99.90;;;;;;5075607;28;20482;-86
2022/10/23 08:15:40;;;;;;;2.00;1.50;;;17.60;29.10;;;;;;5076436;28;20527;-84
2022/10/23 08:18:06;;;;;;;4.00;1.97;;;18.10;99.90;;;;;;5075203;28;20183;-85
2022/10/23 08:20:33;;;;;;;3.30;1.87;;;18.20;35.70;;;;;;5074490;28;20415;-85
2022/10/23 08:22:58;;;;;;;4.30;2.73;;;18.80;1.00;;;;;;5075073;28;20482;-85
2022/10/23 08:25:24;;;;;;;3.43;2.20;;;19.90;99.90;;;;;;5075114;28;20419;-85
2022/10/23 08:27:49;;;;;;;4.47;2.20;;;20.50;1.00;;;;;;5066831;28;20181;-85
2022/10/23 08:30:15;;;;;;;5.30;2.30;;;20.60;99.90;;;;;;5061061;28;20650;-86
2022/10/23 08:32:40;;;;;;;2.93;1.97;;;20.70;99.90;;;;;;5054706;28;20292;-85
2022/10/23 08:35:06;;;;;;;2.67;1.60;;;20.90;99.90;;;;;;5055118;28;20172;-86
2022/10/23 08:37:31;;;;;;;4.53;2.50;;;21.20;99.90;;;;;;5055170;28;20263;-86
2022/10/23 08:39:57;;;;;;;2.77;1.70;;;19.80;1.00;;;;;;5037436;28;20524;-85
2022/10/23 08:42:25;;;;;;;4.50;2.27;;;18.70;99.90;;;;;;5036806;28;20177;-88
2022/10/23 08:45:09;;;;;;;4.50;2.20;;;19.00;1.00;;;;;;5036564;28;20174;-86
2022/10/23 08:47:48;;;;;;;5.40;2.20;;;18.30;1.00;;;;;;5054412;28;20412;-86
2022/10/23 08:50:26;;;;;;;2.50;1.93;;;17.20;99.90;;;;;;5054394;28;20430;-87
2022/10/23 08:53:23;;;;;;;3.87;2.00;;;16.40;1.00;;;;;;5054205;28;20466;-86
2022/10/23 08:55:58;;;;;;;2.30;1.60;;;16.00;99.90;;;;;;5053534;28;20915;-86
2022/10/23 08:58:39;;;;;;;7.07;2.10;;;16.10;99.90;;;;;;5054270;28;20448;-86
2022/10/23 09:01:41;;;;;;;6.77;2.20;;;16.70;30.00;;;;;;5054880;28;20436;-85
2022/10/23 09:04:10;;;;;;;3.70;1.90;;;17.70;1.00;;;;;;5054635;28;20421;-88
2022/10/23 09:06:56;;;;;;;3.73;2.10;;;17.60;99.90;;;;;;5053785;28;20459;-86
2022/10/23 09:09:40;;;;;;;4.97;1.80;;;16.70;1.00;;;;;;5053905;28;20413;-87
2022/10/23 09:12:19;;;;;;;3.30;1.70;;;16.60;1.00;;;;;;5053219;28;20452;-86
2022/10/23 09:15:20;;;;;;;7.30;2.50;;;16.90;1.00;;;;;;5053661;28;20416;-87
2022/10/23 09:17:47;;;;;;;3.43;2.23;;;17.10;1.00;;;;;;5053564;28;20962;-87
2022/10/23 09:20:13;;;;;;;2.90;2.20;;;16.70;15.90;;;;;;5053408;28;20456;-87
2022/10/23 09:22:40;;;;;;;3.80;1.73;;;16.90;31.90;;;;;;5053659;28;20495;-86
2022/10/23 09:25:14;;;;;;;5.20;1.80;;;16.80;1.00;;;;;;5053361;28;20194;-87
2022/10/23 09:27:49;;;;;;;4.40;2.37;;;16.70;65.90;;;;;;5052670;28;20416;-86
2022/10/23 09:30:33;;;;;;;5.27;3.13;;;16.90;37.70;;;;;;5051363;28;20414;-87
2022/10/23 09:32:59;;;;;;;3.60;2.97;;;17.50;1.00;;;;;;5042912;28;20466;-91
2022/10/23 09:35:28;;;;;;;4.73;1.90;;;17.60;1.00;;;;;;5056478;28;20443;-90
2022/10/23 09:37:54;;;;;;;3.33;1.73;;;17.10;1.00;;;;;;5055576;28;20431;-92
2022/10/23 09:40:29;;;;;;;3.43;1.57;;;17.20;8.50;;;;;;5072729;28;20408;-91
2022/10/23 09:42:58;;;;;;;6.20;1.93;;;17.00;1.00;;;;;;5054886;28;20454;-91
2022/10/23 09:45:33;;;;;;;3.93;1.33;;;17.00;99.00;;;;;;5055492;28;20447;-90
2022/10/23 09:48:15;;;;;;;3.20;2.10;;;17.00;90.20;;;;;;5054803;28;20419;-88
2022/10/23 09:50:52;;;;;;;8.97;3.03;;;16.70;99.90;;;;;;5056050;28;20419;-90
2022/10/23 09:53:30;;;;;;;3.33;2.43;;;16.60;99.90;;;;;;5056243;28;20841;-92
2022/10/23 09:55:59;;;;;;;2.97;1.83;;;16.60;99.90;;;;;;5059042;28;20416;-93
2022/10/23 09:58:37;;;;;;;3.63;2.97;;;16.40;99.90;;;;;;5080341;28;20457;-91
2022/10/23 10:01:03;;;;;;;2.87;1.57;;;16.40;99.90;;;;;;5061842;28;20444;-90
2022/10/23 10:03:29;;;;;;;6.10;3.23;;;16.50;99.90;;;;;;5062011;28;20437;-91
2022/10/23 10:06:04;;;;;;;3.30;2.27;;;16.60;99.90;;;;;;5061897;28;20978;-89
2022/10/23 10:09:03;;;;;;;4.33;2.27;;;16.60;99.90;;;;;;5074535;28;20168;-89
2022/10/23 10:11:49;;;;;;;8.17;2.37;;;16.80;99.90;;;;;;5073739;28;20451;-90
2022/10/23 10:14:50;;;;;;;4.50;2.33;;;16.90;99.90;;;;;;5074890;28;20561;-90
2022/10/23 10:17:30;;;;;;;5.37;2.60;;;16.80;99.90;;;;;;5056020;28;20489;-90
2022/10/23 10:20:30;;;;;;;8.63;3.47;;;16.60;99.90;;;;;;5073260;28;20745;-87
2022/10/23 10:23:05;;;;;;;6.30;2.30;;;16.70;99.90;;;;;;5055106;28;20768;-89
2022/10/23 10:25:40;;;;;;;5.30;2.30;;;17.10;99.90;;;;;;5055939;28;20481;-89
2022/10/23 10:28:33;;;;;;;6.97;2.23;;;17.10;99.90;;;;;;5055824;28;20411;-87
2022/10/23 10:31:31;;;;;;;5.30;2.30;;;16.80;99.90;;;;;;5056237;28;20925;-90
2022/10/23 10:34:28;;;;;;;4.93;2.30;;;16.80;99.90;;;;;;5056396;28;20435;-90
2022/10/23 10:37:18;;;;;;;4.10;2.20;;;16.70;99.90;;;;;;5073440;28;20430;-87
2022/10/23 10:40:10;;;;;;;3.30;1.90;;;16.80;99.90;;;;;;5073787;28;20407;-87
2022/10/23 10:43:10;;;;;;;3.97;2.10;;;16.80;99.90;;;;;;5074053;28;20411;-88
2022/10/23 10:45:43;;;;;;;3.67;2.20;;;17.00;99.90;;;;;;5059261;28;20977;-88
2022/10/23 10:48:40;;;;;;;4.43;2.67;;;17.00;99.90;;;;;;5058734;28;20776;-90
2022/10/23 10:51:40;;;;;;;3.93;1.67;;;17.40;99.90;;;;;;5076824;28;20414;-86
2022/10/23 10:54:24;;;;;;;3.40;1.77;;;17.60;99.90;;;;;;5044622;28;20441;-89
2022/10/23 10:56:50;;;;;;;5.50;2.57;;;17.70;99.90;;;;;;5077002;28;20404;-88
2022/10/23 10:59:20;;;;;;;4.77;1.60;;;17.60;99.90;;;;;;5077054;28;20814;-91
2022/10/23 11:02:11;;;;;;;3.93;2.17;;;17.80;1.00;;;;;;5060494;28;20173;-89
2022/10/23 11:04:49;;;;;;;2.43;1.60;;;17.50;38.30;;;;;;5038818;28;20481;-90
2022/10/23 11:07:21;;;;;;;3.50;1.80;;;17.40;92.40;;;;;;5038649;28;20469;-89
2022/10/23 11:09:47;;;;;;;6.50;2.50;;;17.30;96.20;;;;;;5038412;28;20505;-92
2022/10/23 11:12:22;;;;;;;4.80;1.10;;;17.40;99.90;;;;;;5039421;28;20838;-94
2022/10/23 11:14:49;;;;;;;5.77;2.30;;;17.50;99.90;;;;;;5040234;28;20419;-89
2022/10/23 11:17:25;;;;;;;3.33;1.70;;;17.80;31.20;;;;;;5038687;28;20432;-92
2022/10/23 11:20:06;;;;;;;4.63;1.33;;;17.80;1.00;;;;;;5065320;28;20406;-92
2022/10/23 11:22:36;;;;;;;4.37;1.80;;;17.60;49.00;;;;;;5058910;28;20430;-89
2022/10/23 11:25:42;;;;;;;2.30;1.13;;;17.80;99.90;;;;;;5060195;28;20419;-89
2022/10/23 11:28:42;;;;;;;3.50;1.33;;;17.80;59.00;;;;;;5061421;28;20426;-91
2022/10/23 11:31:46;;;;;;;3.30;1.27;;;17.80;99.90;;;;;;5064851;28;20422;-93
2022/10/23 11:34:57;;;;;;;3.70;1.30;;;17.80;57.30;;;;;;4974690;28;20488;-91
2022/10/23 11:37:23;;;;;;;3.10;1.53;;;17.80;48.60;;;;;;5070911;28;20423;-88
2022/10/23 11:40:06;;;;;;;4.77;1.63;;;17.40;99.90;;;;;;5075627;28;20435;-88
2022/10/23 11:42:45;;;;;;;2.23;1.33;;;17.60;99.90;;;;;;5076359;28;20438;-85
2022/10/23 11:45:34;;;;;;;3.70;1.37;;;17.60;99.90;;;;;;5075815;28;20407;-86
2022/10/23 11:48:19;;;;;;;6.40;2.10;;;17.50;99.90;;;;;;5057900;28;20511;-87
2022/10/23 11:50:45;;;;;;;2.80;1.13;;;17.60;99.90;;;;;;5075422;28;20503;-88
2022/10/23 11:53:42;;;;;;;4.80;1.63;;;17.60;99.90;;;;;;5055170;28;20562;-88
2022/10/23 11:56:10;;;;;;;2.40;1.20;;;17.60;56.60;;;;;;5021743;28;20181;-87
2022/10/23 11:58:47;;;;;;;4.60;1.33;;;17.50;99.90;;;;;;5055925;28;20473;-86
2022/10/23 12:01:26;;;;;;;3.33;2.10;;;17.50;99.90;;;;;;5055681;28;20419;-88
2022/10/23 12:04:01;;;;;;;2.70;1.43;;;17.70;99.90;;;;;;5055585;28;20406;-86
2022/10/23 12:06:55;;;;;;;6.47;1.47;;;17.90;99.90;;;;;;5055412;28;20466;-89
2022/10/23 12:09:39;;;;;;;5.97;2.27;;;18.00;97.90;;;;;;5054421;28;20432;-89
2022/10/23 12:12:08;;;;;;;4.37;1.90;;;18.10;78.40;;;;;;5054148;28;20493;-87
2022/10/23 12:14:39;;;;;;;7.13;1.87;;;18.20;26.60;;;;;;5055350;28;20461;-89
2022/10/23 12:17:27;;;;;;;4.37;1.80;;;18.10;1.80;;;;;;5055483;28;20829;-86
2022/10/23 12:20:00;;;;;;;5.57;2.30;;;18.30;48.70;;;;;;5055298;28;20396;-85
2022/10/23 12:22:50;;;;;;;3.30;1.60;;;18.30;33.80;;;;;;5055340;28;20412;-86
2022/10/23 12:25:25;;;;;;;3.40;1.30;;;18.50;50.80;;;;;;5023918;28;20421;-86
2022/10/23 12:27:59;;;;;;;3.00;1.70;;;18.50;10.90;;;;;;5054876;28;20457;-87
2022/10/23 12:30:41;;;;;;;2.63;1.43;;;18.20;79.90;;;;;;5055124;28;20426;-90
2022/10/23 12:33:33;;;;;;;3.87;1.50;;;17.80;99.90;;;;;;5053777;28;20568;-87
2022/10/23 12:36:01;;;;;;;4.77;2.07;;;17.60;99.90;;;;;;5054544;28;20933;-86
2022/10/23 12:38:28;;;;;;;2.90;1.37;;;17.60;99.90;;;;;;5055098;28;20440;-86
2022/10/23 12:41:08;;;;;;;2.40;2.20;;;17.70;99.90;;;;;;5054432;28;20426;-86
2022/10/23 12:43:36;;;;;;;5.03;1.70;;;17.50;99.90;;;;;;5054961;28;20408;-85
2022/10/23 12:46:44;;;;;;;3.90;2.03;;;17.60;99.90;;;;;;5055051;28;20428;-87
2022/10/23 12:49:15;;;;;;;2.50;1.33;;;17.70;99.90;;;;;;5053402;28;20427;-87
2022/10/23 12:51:41;;;;;;;1.73;0.90;;;17.70;99.90;;;;;;5053473;28;20467;-88
2022/10/23 12:54:18;;;;;;;2.27;1.10;;;17.60;99.90;;;;;;5054702;28;20408;-87
2022/10/23 12:56:44;;;;;;;3.23;1.70;;;17.60;99.90;;;;;;5054375;28;20523;-86
2022/10/23 12:59:25;;;;;;;3.07;1.63;;;17.60;99.90;;;;;;5054588;28;20421;-86
2022/10/23 13:01:52;;;;;;;3.20;0.57;;;17.70;99.90;;;;;;5054632;28;20408;-85
2022/10/23 13:04:29;;;;;;;3.30;1.03;;;17.80;99.90;;;;;;5054520;28;20412;-86
2022/10/23 13:06:58;;;;;;;2.23;0.63;;;17.70;99.90;;;;;;5054120;28;20483;-86
2022/10/23 13:09:32;;;;;;;2.10;0.83;;;17.60;99.90;;;;;;5054468;28;20440;-88
2022/10/23 13:12:00;;;;;;;4.47;0.97;;;17.60;99.90;;;;;;5053880;28;20494;-83
2022/10/23 13:14:39;;;;;;;3.23;0.73;;;17.50;99.90;;;;;;5054293;28;20419;-86
2022/10/23 13:17:07;;;;;;;2.60;0.90;;;17.40;99.90;;;;;;5054178;28;20463;-86